sensor_id;sensor_type;location;lat;lon;timestamp;temperature;humidity
1812;DHT22;904;47.814;11.134;2022-08-01T00:02:21;21.80;68.20
1812;DHT22;904;47.814;11.134;2022-08-01T00:04:48;21.80;67.70
1812;DHT22;904;47.814;11.134;2022-08-01T00:07:15;21.80;68.40
1812;DHT22;904;47.814;11.134;2022-08-01T00:09:42;21.80;67.30
1812;DHT22;904;47.814;11.134;2022-08-01T00:12:09;21.80;67.00
1812;DHT22;904;47.814;11.134;2022-08-01T00:14:38;21.90;66.90
1812;DHT22;904;47.814;11.134;2022-08-01T00:17:05;21.90;66.60
1812;DHT22;904;47.814;11.134;2022-08-01T00:19:32;22.00;66.70
1812;DHT22;904;47.814;11.134;2022-08-01T00:21:59;22.00;66.50
1812;DHT22;904;47.814;11.134;2022-08-01T00:24:26;22.00;66.40
1812;DHT22;904;47.814;11.134;2022-08-01T00:26:53;22.00;66.50
1812;DHT22;904;47.814;11.134;2022-08-01T00:29:20;22.10;66.70
1812;DHT22;904;47.814;11.134;2022-08-01T00:31:51;22.10;67.50
1812;DHT22;904;47.814;11.134;2022-08-01T00:34:20;22.20;67.10
1812;DHT22;904;47.814;11.134;2022-08-01T00:36:47;22.20;69.20
1812;DHT22;904;47.814;11.134;2022-08-01T00:39:14;22.20;70.10
1812;DHT22;904;47.814;11.134;2022-08-01T00:41:41;22.20;70.30
1812;DHT22;904;47.814;11.134;2022-08-01T00:44:09;22.20;70.40
1812;DHT22;904;47.814;11.134;2022-08-01T00:46:36;22.20;71.00
1812;DHT22;904;47.814;11.134;2022-08-01T00:49:05;22.20;71.50
1812;DHT22;904;47.814;11.134;2022-08-01T00:51:35;22.10;72.10
1812;DHT22;904;47.814;11.134;2022-08-01T00:54:02;22.00;72.50
1812;DHT22;904;47.814;11.134;2022-08-01T00:56:34;22.00;72.40
1812;DHT22;904;47.814;11.134;2022-08-01T00:59:03;21.90;70.50
1812;DHT22;904;47.814;11.134;2022-08-01T01:01:31;21.90;70.10
1812;DHT22;904;47.814;11.134;2022-08-01T01:03:58;21.90;69.60
1812;DHT22;904;47.814;11.134;2022-08-01T01:06:34;21.90;68.90
1812;DHT22;904;47.814;11.134;2022-08-01T01:09:23;21.90;68.40
1812;DHT22;904;47.814;11.134;2022-08-01T01:12:00;21.80;68.00
1812;DHT22;904;47.814;11.134;2022-08-01T01:14:33;21.80;67.80
1812;DHT22;904;47.814;11.134;2022-08-01T01:17:03;21.80;67.40
1812;DHT22;904;47.814;11.134;2022-08-01T01:19:33;21.80;67.30
1812;DHT22;904;47.814;11.134;2022-08-01T01:22:26;21.80;67.30
1812;DHT22;904;47.814;11.134;2022-08-01T01:25:08;21.70;66.90
1812;DHT22;904;47.814;11.134;2022-08-01T01:27:45;21.70;67.50
1812;DHT22;904;47.814;11.134;2022-08-01T01:30:15;21.70;68.20
1812;DHT22;904;47.814;11.134;2022-08-01T01:32:46;21.70;68.10
1812;DHT22;904;47.814;11.134;2022-08-01T01:35:19;21.70;69.00
1812;DHT22;904;47.814;11.134;2022-08-01T01:37:50;21.60;69.10
1812;DHT22;904;47.814;11.134;2022-08-01T01:40:18;21.50;69.20
1812;DHT22;904;47.814;11.134;2022-08-01T01:42:46;21.50;69.80
1812;DHT22;904;47.814;11.134;2022-08-01T01:45:16;21.40;70.40
1812;DHT22;904;47.814;11.134;2022-08-01T01:47:45;21.30;70.70
1812;DHT22;904;47.814;11.134;2022-08-01T01:50:13;21.30;71.00
1812;DHT22;904;47.814;11.134;2022-08-01T01:52:42;21.30;71.70
1812;DHT22;904;47.814;11.134;2022-08-01T01:55:12;21.20;71.80
1812;DHT22;904;47.814;11.134;2022-08-01T01:57:41;21.20;71.90
1812;DHT22;904;47.814;11.134;2022-08-01T02:00:11;21.10;72.20
1812;DHT22;904;47.814;11.134;2022-08-01T02:02:41;21.10;72.10
1812;DHT22;904;47.814;11.134;2022-08-01T02:05:10;21.10;72.00
1812;DHT22;904;47.814;11.134;2022-08-01T02:07:39;21.10;72.00
1812;DHT22;904;47.814;11.134;2022-08-01T02:10:08;21.00;72.00
1812;DHT22;904;47.814;11.134;2022-08-01T02:12:38;21.00;71.90
1812;DHT22;904;47.814;11.134;2022-08-01T02:15:07;21.00;73.30
1812;DHT22;904;47.814;11.134;2022-08-01T02:17:41;21.00;72.90
1812;DHT22;904;47.814;11.134;2022-08-01T02:20:09;20.90;73.00
1812;DHT22;904;47.814;11.134;2022-08-01T02:22:41;20.90;72.90
1812;DHT22;904;47.814;11.134;2022-08-01T02:25:22;21.00;73.30
1812;DHT22;904;47.814;11.134;2022-08-01T02:27:56;20.90;72.90
1812;DHT22;904;47.814;11.134;2022-08-01T02:30:28;20.90;73.00
1812;DHT22;904;47.814;11.134;2022-08-01T02:33:00;21.00;73.60
1812;DHT22;904;47.814;11.134;2022-08-01T02:35:32;21.00;73.30
1812;DHT22;904;47.814;11.134;2022-08-01T02:38:01;21.00;72.50
1812;DHT22;904;47.814;11.134;2022-08-01T02:40:33;21.00;72.20
1812;DHT22;904;47.814;11.134;2022-08-01T02:43:02;20.90;72.00
1812;DHT22;904;47.814;11.134;2022-08-01T02:45:30;20.90;72.30
1812;DHT22;904;47.814;11.134;2022-08-01T02:48:05;20.90;72.80
1812;DHT22;904;47.814;11.134;2022-08-01T02:50:36;20.90;73.30
1812;DHT22;904;47.814;11.134;2022-08-01T02:53:05;20.80;72.90
1812;DHT22;904;47.814;11.134;2022-08-01T02:55:37;20.80;73.50
1812;DHT22;904;47.814;11.134;2022-08-01T02:58:10;20.80;73.70
1812;DHT22;904;47.814;11.134;2022-08-01T03:00:40;20.80;73.30
1812;DHT22;904;47.814;11.134;2022-08-01T03:03:09;20.80;73.30
1812;DHT22;904;47.814;11.134;2022-08-01T03:05:37;20.80;72.70
1812;DHT22;904;47.814;11.134;2022-08-01T03:08:06;20.70;72.70
1812;DHT22;904;47.814;11.134;2022-08-01T03:10:37;20.70;72.70
1812;DHT22;904;47.814;11.134;2022-08-01T03:13:07;20.60;72.60
1812;DHT22;904;47.814;11.134;2022-08-01T03:15:38;20.60;72.60
1812;DHT22;904;47.814;11.134;2022-08-01T03:18:09;20.60;72.60
1812;DHT22;904;47.814;11.134;2022-08-01T03:20:37;20.60;72.90
1812;DHT22;904;47.814;11.134;2022-08-01T03:23:06;20.60;72.80
1812;DHT22;904;47.814;11.134;2022-08-01T03:25:36;20.60;73.40
1812;DHT22;904;47.814;11.134;2022-08-01T03:28:06;20.60;73.40
1812;DHT22;904;47.814;11.134;2022-08-01T03:30:34;20.60;74.30
1812;DHT22;904;47.814;11.134;2022-08-01T03:33:03;20.50;74.20
1812;DHT22;904;47.814;11.134;2022-08-01T03:35:34;20.50;75.00
1812;DHT22;904;47.814;11.134;2022-08-01T03:38:04;20.40;75.40
1812;DHT22;904;47.814;11.134;2022-08-01T03:40:36;20.40;76.40
1812;DHT22;904;47.814;11.134;2022-08-01T03:43:06;20.40;76.60
1812;DHT22;904;47.814;11.134;2022-08-01T03:45:36;20.30;76.70
1812;DHT22;904;47.814;11.134;2022-08-01T03:48:07;20.30;77.00
1812;DHT22;904;47.814;11.134;2022-08-01T03:50:40;20.30;77.50
1812;DHT22;904;47.814;11.134;2022-08-01T03:53:08;20.20;77.70
1812;DHT22;904;47.814;11.134;2022-08-01T03:55:38;20.00;78.20
1812;DHT22;904;47.814;11.134;2022-08-01T03:58:06;20.00;78.60
1812;DHT22;904;47.814;11.134;2022-08-01T04:00:35;20.00;78.70
1812;DHT22;904;47.814;11.134;2022-08-01T04:03:04;19.90;78.90
1812;DHT22;904;47.814;11.134;2022-08-01T04:05:31;19.90;79.20
1812;DHT22;904;47.814;11.134;2022-08-01T04:07:59;19.90;79.80
1812;DHT22;904;47.814;11.134;2022-08-01T04:10:28;19.90;79.60
1812;DHT22;904;47.814;11.134;2022-08-01T04:12:55;19.90;79.80
1812;DHT22;904;47.814;11.134;2022-08-01T04:15:22;19.90;80.60
1812;DHT22;904;47.814;11.134;2022-08-01T04:17:49;19.90;80.30
1812;DHT22;904;47.814;11.134;2022-08-01T04:20:16;19.90;80.50
1812;DHT22;904;47.814;11.134;2022-08-01T04:22:43;19.90;80.70
1812;DHT22;904;47.814;11.134;2022-08-01T04:25:17;19.90;80.60
1812;DHT22;904;47.814;11.134;2022-08-01T04:27:47;19.90;80.00
1812;DHT22;904;47.814;11.134;2022-08-01T04:30:16;19.90;80.00
1812;DHT22;904;47.814;11.134;2022-08-01T04:32:45;20.00;80.30
1812;DHT22;904;47.814;11.134;2022-08-01T04:35:14;20.00;80.50
1812;DHT22;904;47.814;11.134;2022-08-01T04:37:44;20.10;81.60
1812;DHT22;904;47.814;11.134;2022-08-01T04:40:16;20.10;81.00
1812;DHT22;904;47.814;11.134;2022-08-01T04:42:43;20.10;80.10
1812;DHT22;904;47.814;11.134;2022-08-01T04:45:11;20.20;79.50
1812;DHT22;904;47.814;11.134;2022-08-01T04:47:39;20.30;79.70
1812;DHT22;904;47.814;11.134;2022-08-01T04:50:09;20.30;79.40
1812;DHT22;904;47.814;11.134;2022-08-01T04:52:37;20.40;79.00
1812;DHT22;904;47.814;11.134;2022-08-01T04:55:05;20.50;78.30
1812;DHT22;904;47.814;11.134;2022-08-01T04:57:37;20.60;78.20
1812;DHT22;904;47.814;11.134;2022-08-01T05:00:05;20.60;76.70
1812;DHT22;904;47.814;11.134;2022-08-01T05:02:32;20.70;77.10
1812;DHT22;904;47.814;11.134;2022-08-01T05:04:59;20.80;76.20
1812;DHT22;904;47.814;11.134;2022-08-01T05:07:27;20.90;76.60
1812;DHT22;904;47.814;11.134;2022-08-01T05:09:55;21.00;77.10
1812;DHT22;904;47.814;11.134;2022-08-01T05:12:21;21.10;77.70
1812;DHT22;904;47.814;11.134;2022-08-01T05:14:50;21.10;75.90
1812;DHT22;904;47.814;11.134;2022-08-01T05:17:17;21.20;75.50
1812;DHT22;904;47.814;11.134;2022-08-01T05:19:44;21.30;74.80
1812;DHT22;904;47.814;11.134;2022-08-01T05:22:11;21.30;75.00
1812;DHT22;904;47.814;11.134;2022-08-01T05:24:39;21.40;74.90
1812;DHT22;904;47.814;11.134;2022-08-01T05:27:08;21.50;75.50
1812;DHT22;904;47.814;11.134;2022-08-01T05:29:35;21.60;75.10
1812;DHT22;904;47.814;11.134;2022-08-01T05:32:04;21.80;74.60
1812;DHT22;904;47.814;11.134;2022-08-01T05:34:31;21.90;74.80
1812;DHT22;904;47.814;11.134;2022-08-01T05:36:58;22.00;73.90
1812;DHT22;904;47.814;11.134;2022-08-01T05:39:25;22.10;74.20
1812;DHT22;904;47.814;11.134;2022-08-01T05:41:52;22.30;73.50
1812;DHT22;904;47.814;11.134;2022-08-01T05:44:19;22.30;73.50
1812;DHT22;904;47.814;11.134;2022-08-01T05:46:46;22.50;73.80
1812;DHT22;904;47.814;11.134;2022-08-01T05:49:14;22.70;73.80
1812;DHT22;904;47.814;11.134;2022-08-01T05:51:41;22.80;73.40
1812;DHT22;904;47.814;11.134;2022-08-01T05:54:08;23.00;73.10
1812;DHT22;904;47.814;11.134;2022-08-01T05:56:35;23.10;73.50
1812;DHT22;904;47.814;11.134;2022-08-01T05:59:02;23.20;71.00
1812;DHT22;904;47.814;11.134;2022-08-01T06:01:29;23.20;72.00
1812;DHT22;904;47.814;11.134;2022-08-01T06:03:55;23.30;73.80
1812;DHT22;904;47.814;11.134;2022-08-01T06:06:28;23.50;74.30
1812;DHT22;904;47.814;11.134;2022-08-01T06:09:03;23.50;73.50
1812;DHT22;904;47.814;11.134;2022-08-01T06:11:31;23.50;70.30
1812;DHT22;904;47.814;11.134;2022-08-01T06:13:58;23.40;69.70
1812;DHT22;904;47.814;11.134;2022-08-01T06:16:25;23.40;68.90
1812;DHT22;904;47.814;11.134;2022-08-01T06:18:52;23.30;69.60
1812;DHT22;904;47.814;11.134;2022-08-01T06:21:19;23.20;68.80
1812;DHT22;904;47.814;11.134;2022-08-01T06:23:47;23.10;69.60
1812;DHT22;904;47.814;11.134;2022-08-01T06:26:17;23.10;71.60
1812;DHT22;904;47.814;11.134;2022-08-01T06:28:44;23.10;71.50
1812;DHT22;904;47.814;11.134;2022-08-01T06:31:11;23.20;72.10
1812;DHT22;904;47.814;11.134;2022-08-01T06:33:40;23.20;70.00
1812;DHT22;904;47.814;11.134;2022-08-01T06:36:07;23.20;70.80
1812;DHT22;904;47.814;11.134;2022-08-01T06:38:34;23.30;71.20
1812;DHT22;904;47.814;11.134;2022-08-01T06:41:03;23.40;72.00
1812;DHT22;904;47.814;11.134;2022-08-01T06:43:30;23.50;72.00
1812;DHT22;904;47.814;11.134;2022-08-01T06:45:57;23.60;71.20
1812;DHT22;904;47.814;11.134;2022-08-01T06:48:24;23.70;71.00
1812;DHT22;904;47.814;11.134;2022-08-01T06:50:52;23.80;70.90
1812;DHT22;904;47.814;11.134;2022-08-01T06:53:33;23.90;71.70
1812;DHT22;904;47.814;11.134;2022-08-01T06:56:04;23.90;70.30
1812;DHT22;904;47.814;11.134;2022-08-01T06:58:31;24.00;70.00
1812;DHT22;904;47.814;11.134;2022-08-01T07:01:02;24.10;69.00
1812;DHT22;904;47.814;11.134;2022-08-01T07:03:31;24.10;68.10
1812;DHT22;904;47.814;11.134;2022-08-01T07:05:58;24.30;68.70
1812;DHT22;904;47.814;11.134;2022-08-01T07:08:25;24.40;69.00
1812;DHT22;904;47.814;11.134;2022-08-01T07:10:52;24.50;68.20
1812;DHT22;904;47.814;11.134;2022-08-01T07:13:21;24.50;67.10
1812;DHT22;904;47.814;11.134;2022-08-01T07:15:51;24.60;67.60
1812;DHT22;904;47.814;11.134;2022-08-01T07:18:21;24.80;67.90
1812;DHT22;904;47.814;11.134;2022-08-01T07:20:48;24.90;68.10
1812;DHT22;904;47.814;11.134;2022-08-01T07:23:15;25.10;68.60
1812;DHT22;904;47.814;11.134;2022-08-01T07:25:47;25.20;67.10
1812;DHT22;904;47.814;11.134;2022-08-01T07:28:22;25.30;68.10
1812;DHT22;904;47.814;11.134;2022-08-01T07:30:50;25.40;66.70
1812;DHT22;904;47.814;11.134;2022-08-01T07:33:17;25.50;66.30
1812;DHT22;904;47.814;11.134;2022-08-01T07:35:44;25.60;65.90
1812;DHT22;904;47.814;11.134;2022-08-01T07:38:11;25.70;65.20
1812;DHT22;904;47.814;11.134;2022-08-01T07:40:39;25.70;64.30
1812;DHT22;904;47.814;11.134;2022-08-01T07:43:08;25.80;64.80
1812;DHT22;904;47.814;11.134;2022-08-01T07:45:37;25.90;64.90
1812;DHT22;904;47.814;11.134;2022-08-01T07:48:09;26.00;64.50
1812;DHT22;904;47.814;11.134;2022-08-01T07:50:38;26.10;64.60
1812;DHT22;904;47.814;11.134;2022-08-01T07:53:05;26.20;64.50
1812;DHT22;904;47.814;11.134;2022-08-01T07:55:35;26.30;63.90
1812;DHT22;904;47.814;11.134;2022-08-01T07:58:05;26.40;63.00
1812;DHT22;904;47.814;11.134;2022-08-01T08:00:38;26.50;62.20
1812;DHT22;904;47.814;11.134;2022-08-01T08:03:10;26.50;61.50
1812;DHT22;904;47.814;11.134;2022-08-01T08:05:38;26.60;61.20
1812;DHT22;904;47.814;11.134;2022-08-01T08:08:10;26.70;59.90
1812;DHT22;904;47.814;11.134;2022-08-01T08:10:37;26.80;59.70
1812;DHT22;904;47.814;11.134;2022-08-01T08:13:04;26.80;59.10
1812;DHT22;904;47.814;11.134;2022-08-01T08:15:31;26.90;58.80
1812;DHT22;904;47.814;11.134;2022-08-01T08:18:00;27.00;58.00
1812;DHT22;904;47.814;11.134;2022-08-01T08:20:27;27.00;58.00
1812;DHT22;904;47.814;11.134;2022-08-01T08:22:55;27.10;58.80
1812;DHT22;904;47.814;11.134;2022-08-01T08:25:26;27.30;58.80
1812;DHT22;904;47.814;11.134;2022-08-01T08:28:00;27.40;58.30
1812;DHT22;904;47.814;11.134;2022-08-01T08:30:27;27.50;57.50
1812;DHT22;904;47.814;11.134;2022-08-01T08:32:56;27.60;56.70
1812;DHT22;904;47.814;11.134;2022-08-01T08:35:25;27.70;56.20
1812;DHT22;904;47.814;11.134;2022-08-01T08:37:52;27.80;56.50
1812;DHT22;904;47.814;11.134;2022-08-01T08:40:23;27.90;56.00
1812;DHT22;904;47.814;11.134;2022-08-01T08:43:00;28.00;56.00
1812;DHT22;904;47.814;11.134;2022-08-01T08:45:29;28.00;55.70
1812;DHT22;904;47.814;11.134;2022-08-01T08:47:57;28.20;55.80
1812;DHT22;904;47.814;11.134;2022-08-01T08:50:26;28.20;55.80
1812;DHT22;904;47.814;11.134;2022-08-01T08:52:53;28.30;55.00
1812;DHT22;904;47.814;11.134;2022-08-01T08:55:23;28.40;53.60
1812;DHT22;904;47.814;11.134;2022-08-01T08:57:50;28.50;55.10
1812;DHT22;904;47.814;11.134;2022-08-01T09:00:22;28.60;54.90
1812;DHT22;904;47.814;11.134;2022-08-01T09:02:54;28.60;54.00
1812;DHT22;904;47.814;11.134;2022-08-01T09:05:24;28.70;54.00
1812;DHT22;904;47.814;11.134;2022-08-01T09:07:53;28.80;53.30
1812;DHT22;904;47.814;11.134;2022-08-01T09:10:28;28.90;53.70
1812;DHT22;904;47.814;11.134;2022-08-01T09:13:06;29.00;52.70
1812;DHT22;904;47.814;11.134;2022-08-01T09:15:47;29.20;52.00
1812;DHT22;904;47.814;11.134;2022-08-01T09:18:33;29.40;52.10
1812;DHT22;904;47.814;11.134;2022-08-01T09:21:14;29.70;51.50
1812;DHT22;904;47.814;11.134;2022-08-01T09:23:45;30.00;50.90
1812;DHT22;904;47.814;11.134;2022-08-01T09:26:16;30.30;50.50
1812;DHT22;904;47.814;11.134;2022-08-01T09:28:47;30.50;48.10
1812;DHT22;904;47.814;11.134;2022-08-01T09:31:19;30.70;48.40
1812;DHT22;904;47.814;11.134;2022-08-01T09:33:50;30.80;48.80
1812;DHT22;904;47.814;11.134;2022-08-01T09:36:19;30.90;48.50
1812;DHT22;904;47.814;11.134;2022-08-01T09:38:47;30.90;47.10
1812;DHT22;904;47.814;11.134;2022-08-01T09:41:14;30.90;46.60
1812;DHT22;904;47.814;11.134;2022-08-01T09:43:48;30.90;46.80
1812;DHT22;904;47.814;11.134;2022-08-01T09:46:15;30.90;47.00
1812;DHT22;904;47.814;11.134;2022-08-01T09:48:55;31.00;47.90
1812;DHT22;904;47.814;11.134;2022-08-01T09:51:35;31.00;48.20
1812;DHT22;904;47.814;11.134;2022-08-01T09:54:06;31.10;45.80
1812;DHT22;904;47.814;11.134;2022-08-01T09:56:45;31.20;45.50
1812;DHT22;904;47.814;11.134;2022-08-01T09:59:13;31.30;45.70
1812;DHT22;904;47.814;11.134;2022-08-01T10:01:45;31.30;44.90
1812;DHT22;904;47.814;11.134;2022-08-01T10:04:15;31.20;44.70
1812;DHT22;904;47.814;11.134;2022-08-01T10:06:46;31.30;45.10
1812;DHT22;904;47.814;11.134;2022-08-01T10:09:18;31.30;44.40
1812;DHT22;904;47.814;11.134;2022-08-01T10:11:55;31.30;44.40
1812;DHT22;904;47.814;11.134;2022-08-01T10:14:22;31.30;45.30
1812;DHT22;904;47.814;11.134;2022-08-01T10:16:56;31.40;44.90
1812;DHT22;904;47.814;11.134;2022-08-01T10:19:25;31.50;44.30
1812;DHT22;904;47.814;11.134;2022-08-01T10:21:54;31.50;42.40
1812;DHT22;904;47.814;11.134;2022-08-01T10:24:22;31.40;43.40
1812;DHT22;904;47.814;11.134;2022-08-01T10:26:52;31.40;42.30
1812;DHT22;904;47.814;11.134;2022-08-01T10:29:21;31.40;42.90
1812;DHT22;904;47.814;11.134;2022-08-01T10:31:49;31.40;44.00
1812;DHT22;904;47.814;11.134;2022-08-01T10:34:16;31.40;43.60
1812;DHT22;904;47.814;11.134;2022-08-01T10:36:46;31.40;43.30
1812;DHT22;904;47.814;11.134;2022-08-01T10:39:14;31.30;45.00
1812;DHT22;904;47.814;11.134;2022-08-01T10:41:42;31.30;45.60
1812;DHT22;904;47.814;11.134;2022-08-01T10:44:09;31.30;43.10
1812;DHT22;904;47.814;11.134;2022-08-01T10:46:38;31.30;43.90
1812;DHT22;904;47.814;11.134;2022-08-01T10:49:11;31.40;42.90
1812;DHT22;904;47.814;11.134;2022-08-01T10:51:40;31.40;42.70
1812;DHT22;904;47.814;11.134;2022-08-01T10:54:09;31.50;43.40
1812;DHT22;904;47.814;11.134;2022-08-01T10:56:44;31.60;43.90
1812;DHT22;904;47.814;11.134;2022-08-01T10:59:15;31.70;43.30
1812;DHT22;904;47.814;11.134;2022-08-01T11:01:55;31.70;42.80
1812;DHT22;904;47.814;11.134;2022-08-01T11:04:32;31.80;42.30
1812;DHT22;904;47.814;11.134;2022-08-01T11:07:04;31.80;43.80
1812;DHT22;904;47.814;11.134;2022-08-01T11:09:39;31.90;44.30
1812;DHT22;904;47.814;11.134;2022-08-01T11:12:12;32.10;43.20
1812;DHT22;904;47.814;11.134;2022-08-01T11:15:18;32.20;43.10
1812;DHT22;904;47.814;11.134;2022-08-01T11:17:53;32.30;42.00
1812;DHT22;904;47.814;11.134;2022-08-01T11:20:22;32.30;41.90
1812;DHT22;904;47.814;11.134;2022-08-01T11:26:14;32.30;39.40
1812;DHT22;904;47.814;11.134;2022-08-01T11:31:30;32.20;39.40
1812;DHT22;904;47.814;11.134;2022-08-01T11:33:58;32.20;39.60
1812;DHT22;904;47.814;11.134;2022-08-01T11:36:25;32.20;39.20
1812;DHT22;904;47.814;11.134;2022-08-01T11:39:16;32.20;38.70
1812;DHT22;904;47.814;11.134;2022-08-01T11:41:45;32.10;39.10
1812;DHT22;904;47.814;11.134;2022-08-01T11:44:23;32.10;39.00
1812;DHT22;904;47.814;11.134;2022-08-01T11:47:01;32.10;39.70
1812;DHT22;904;47.814;11.134;2022-08-01T11:52:27;32.20;40.30
1812;DHT22;904;47.814;11.134;2022-08-01T11:54:56;32.40;38.20
1812;DHT22;904;47.814;11.134;2022-08-01T11:57:24;32.50;36.90
1812;DHT22;904;47.814;11.134;2022-08-01T11:59:55;32.60;38.80
1812;DHT22;904;47.814;11.134;2022-08-01T12:02:24;32.60;38.20
1812;DHT22;904;47.814;11.134;2022-08-01T12:04:54;32.70;37.60
1812;DHT22;904;47.814;11.134;2022-08-01T12:07:23;32.70;36.60
1812;DHT22;904;47.814;11.134;2022-08-01T12:10:04;32.70;34.70
1812;DHT22;904;47.814;11.134;2022-08-01T12:12:35;32.90;34.90
1812;DHT22;904;47.814;11.134;2022-08-01T12:15:05;32.90;35.80
1812;DHT22;904;47.814;11.134;2022-08-01T12:17:35;33.00;37.90
1812;DHT22;904;47.814;11.134;2022-08-01T12:20:04;33.00;36.90
1812;DHT22;904;47.814;11.134;2022-08-01T12:22:32;33.00;37.40
1812;DHT22;904;47.814;11.134;2022-08-01T12:25:05;33.10;36.40
1812;DHT22;904;47.814;11.134;2022-08-01T12:27:33;33.10;35.70
1812;DHT22;904;47.814;11.134;2022-08-01T12:30:01;33.10;35.90
1812;DHT22;904;47.814;11.134;2022-08-01T12:32:31;33.20;36.70
1812;DHT22;904;47.814;11.134;2022-08-01T12:35:02;33.20;36.50
1812;DHT22;904;47.814;11.134;2022-08-01T12:37:29;33.20;36.30
1812;DHT22;904;47.814;11.134;2022-08-01T12:39:57;33.10;35.40
1812;DHT22;904;47.814;11.134;2022-08-01T12:42:24;33.10;37.00
1812;DHT22;904;47.814;11.134;2022-08-01T12:44:52;33.10;36.00
1812;DHT22;904;47.814;11.134;2022-08-01T12:47:21;33.00;35.20
1812;DHT22;904;47.814;11.134;2022-08-01T12:49:49;33.00;32.50
1812;DHT22;904;47.814;11.134;2022-08-01T12:52:17;32.80;32.90
1812;DHT22;904;47.814;11.134;2022-08-01T12:55:00;32.70;35.50
1812;DHT22;904;47.814;11.134;2022-08-01T12:57:33;32.70;35.70
1812;DHT22;904;47.814;11.134;2022-08-01T13:00:16;32.70;36.10
1812;DHT22;904;47.814;11.134;2022-08-01T13:02:45;32.60;35.20
1812;DHT22;904;47.814;11.134;2022-08-01T13:05:14;32.50;34.90
1812;DHT22;904;47.814;11.134;2022-08-01T13:07:45;32.30;33.50
1812;DHT22;904;47.814;11.134;2022-08-01T13:10:13;32.20;32.30
1812;DHT22;904;47.814;11.134;2022-08-01T13:12:50;32.20;33.50
1812;DHT22;904;47.814;11.134;2022-08-01T13:15:20;32.10;33.50
1812;DHT22;904;47.814;11.134;2022-08-01T13:17:49;32.10;33.20
1812;DHT22;904;47.814;11.134;2022-08-01T13:20:30;32.00;33.30
1812;DHT22;904;47.814;11.134;2022-08-01T13:23:14;31.90;32.30
1812;DHT22;904;47.814;11.134;2022-08-01T13:25:52;31.80;33.50
1812;DHT22;904;47.814;11.134;2022-08-01T13:28:22;31.80;33.00
1812;DHT22;904;47.814;11.134;2022-08-01T13:30:53;31.70;32.20
1812;DHT22;904;47.814;11.134;2022-08-01T13:33:21;31.70;33.30
1812;DHT22;904;47.814;11.134;2022-08-01T13:35:51;31.60;34.10
1812;DHT22;904;47.814;11.134;2022-08-01T13:38:21;31.60;34.10
1812;DHT22;904;47.814;11.134;2022-08-01T13:41:09;31.50;34.20
1812;DHT22;904;47.814;11.134;2022-08-01T13:43:37;31.60;35.60
1812;DHT22;904;47.814;11.134;2022-08-01T13:46:05;31.60;35.40
1812;DHT22;904;47.814;11.134;2022-08-01T13:48:32;31.50;33.80
1812;DHT22;904;47.814;11.134;2022-08-01T13:51:01;31.50;33.50
1812;DHT22;904;47.814;11.134;2022-08-01T13:53:28;31.50;34.60
1812;DHT22;904;47.814;11.134;2022-08-01T13:55:55;31.40;34.70
1812;DHT22;904;47.814;11.134;2022-08-01T13:58:22;31.40;34.00
1812;DHT22;904;47.814;11.134;2022-08-01T14:00:49;31.40;33.60
1812;DHT22;904;47.814;11.134;2022-08-01T14:03:18;31.30;33.10
1812;DHT22;904;47.814;11.134;2022-08-01T14:05:46;31.20;32.20
1812;DHT22;904;47.814;11.134;2022-08-01T14:08:14;31.10;32.80
1812;DHT22;904;47.814;11.134;2022-08-01T14:10:41;31.10;32.80
1812;DHT22;904;47.814;11.134;2022-08-01T14:13:08;31.00;32.80
1812;DHT22;904;47.814;11.134;2022-08-01T14:15:40;31.00;32.90
1812;DHT22;904;47.814;11.134;2022-08-01T14:18:08;30.90;33.80
1812;DHT22;904;47.814;11.134;2022-08-01T14:20:36;30.90;33.90
1812;DHT22;904;47.814;11.134;2022-08-01T14:23:03;30.90;33.40
1812;DHT22;904;47.814;11.134;2022-08-01T14:25:32;30.80;33.00
1812;DHT22;904;47.814;11.134;2022-08-01T14:27:59;30.80;33.80
1812;DHT22;904;47.814;11.134;2022-08-01T14:30:26;30.70;34.60
1812;DHT22;904;47.814;11.134;2022-08-01T14:32:53;30.70;34.70
1812;DHT22;904;47.814;11.134;2022-08-01T14:35:20;30.80;35.50
1812;DHT22;904;47.814;11.134;2022-08-01T14:37:47;30.80;35.30
1812;DHT22;904;47.814;11.134;2022-08-01T14:40:14;30.90;35.70
1812;DHT22;904;47.814;11.134;2022-08-01T14:42:42;31.00;35.50
1812;DHT22;904;47.814;11.134;2022-08-01T14:45:11;31.00;35.00
1812;DHT22;904;47.814;11.134;2022-08-01T14:47:40;31.10;34.40
1812;DHT22;904;47.814;11.134;2022-08-01T14:50:11;31.10;38.70
1812;DHT22;904;47.814;11.134;2022-08-01T14:52:38;31.10;40.00
1812;DHT22;904;47.814;11.134;2022-08-01T14:55:07;31.10;41.10
1812;DHT22;904;47.814;11.134;2022-08-01T14:57:35;31.10;41.60
1812;DHT22;904;47.814;11.134;2022-08-01T15:00:06;31.00;41.00
1812;DHT22;904;47.814;11.134;2022-08-01T15:02:33;30.90;41.10
1812;DHT22;904;47.814;11.134;2022-08-01T15:05:00;30.80;40.60
1812;DHT22;904;47.814;11.134;2022-08-01T15:07:27;30.70;42.00
1812;DHT22;904;47.814;11.134;2022-08-01T15:09:54;30.60;42.50
1812;DHT22;904;47.814;11.134;2022-08-01T15:12:21;30.50;42.10
1812;DHT22;904;47.814;11.134;2022-08-01T15:14:48;30.50;42.50
1812;DHT22;904;47.814;11.134;2022-08-01T15:17:18;30.40;42.20
1812;DHT22;904;47.814;11.134;2022-08-01T15:19:45;30.30;43.10
1812;DHT22;904;47.814;11.134;2022-08-01T15:22:13;30.20;43.20
1812;DHT22;904;47.814;11.134;2022-08-01T15:24:40;30.10;43.70
1812;DHT22;904;47.814;11.134;2022-08-01T15:27:07;29.90;43.70
1812;DHT22;904;47.814;11.134;2022-08-01T15:29:35;29.80;43.90
1812;DHT22;904;47.814;11.134;2022-08-01T15:32:03;29.60;44.90
1812;DHT22;904;47.814;11.134;2022-08-01T15:34:31;29.50;45.40
1812;DHT22;904;47.814;11.134;2022-08-01T15:36:58;29.40;45.50
1812;DHT22;904;47.814;11.134;2022-08-01T15:39:25;29.30;45.60
1812;DHT22;904;47.814;11.134;2022-08-01T15:41:53;29.30;46.30
1812;DHT22;904;47.814;11.134;2022-08-01T15:44:20;29.20;46.50
1812;DHT22;904;47.814;11.134;2022-08-01T15:46:47;29.20;47.30
1812;DHT22;904;47.814;11.134;2022-08-01T15:49:15;29.20;47.70
1812;DHT22;904;47.814;11.134;2022-08-01T15:51:44;29.20;47.40
1812;DHT22;904;47.814;11.134;2022-08-01T15:54:11;29.20;47.40
1812;DHT22;904;47.814;11.134;2022-08-01T15:56:38;29.10;47.60
1812;DHT22;904;47.814;11.134;2022-08-01T15:59:09;29.10;48.30
1812;DHT22;904;47.814;11.134;2022-08-01T16:01:36;29.00;48.40
1812;DHT22;904;47.814;11.134;2022-08-01T16:04:04;29.00;49.10
1812;DHT22;904;47.814;11.134;2022-08-01T16:06:32;28.90;49.00
1812;DHT22;904;47.814;11.134;2022-08-01T16:09:01;28.80;49.30
1812;DHT22;904;47.814;11.134;2022-08-01T16:11:28;28.70;49.50
1812;DHT22;904;47.814;11.134;2022-08-01T16:13:56;28.60;49.40
1812;DHT22;904;47.814;11.134;2022-08-01T16:16:23;28.40;49.30
1812;DHT22;904;47.814;11.134;2022-08-01T16:18:51;28.40;49.50
1812;DHT22;904;47.814;11.134;2022-08-01T16:21:18;28.30;49.20
1812;DHT22;904;47.814;11.134;2022-08-01T16:23:47;28.20;48.80
1812;DHT22;904;47.814;11.134;2022-08-01T16:26:16;28.10;48.70
1812;DHT22;904;47.814;11.134;2022-08-01T16:28:43;28.00;48.60